Time;durP1;ratioP1;P1;durP2;ratioP2;P2;SDS_P1;SDS_P2;PMS_P1;PMS_P2;Temp;Humidity;BMP_temperature;BMP_pressure;BME280_temperature;BME280_humidity;BME280_pressure;Samples;Min_cycle;Max_cycle;Signal;HPM_P1;HPM_P2
2022/09/25 00:00:08;;;;;;;0.75;0.65;;;18.20;64.80;;;;;;4086981;28;20082;-45
2022/09/25 00:02:31;;;;;;;1.80;1.13;;;18.20;64.60;;;;;;4076904;28;20850;-49
2022/09/25 00:04:54;;;;;;;1.25;0.93;;;18.20;64.50;;;;;;4080163;28;20071;-46
2022/09/25 00:07:16;;;;;;;1.17;0.77;;;18.20;64.60;;;;;;4078035;28;20035;-53
2022/09/25 00:09:39;;;;;;;1.35;0.80;;;18.20;64.60;;;;;;4080028;28;20073;-51
2022/09/25 00:12:02;;;;;;;0.90;0.60;;;18.20;64.70;;;;;;4079406;28;20547;-46
2022/09/25 00:14:24;;;;;;;1.42;0.80;;;18.20;64.50;;;;;;4079964;28;20134;-49
2022/09/25 00:16:47;;;;;;;0.98;0.70;;;18.20;64.60;;;;;;4081723;28;20050;-44
2022/09/25 00:21:59;;;;;;;0.73;0.70;;;18.20;64.70;;;;;;4080920;28;20048;-46
2022/09/25 00:24:22;;;;;;;0.80;0.70;;;18.20;64.60;;;;;;4085262;28;20490;-48
2022/09/25 00:26:45;;;;;;;1.27;0.70;;;18.20;64.60;;;;;;4084540;28;20126;-47
2022/09/25 00:29:12;;;;;;;0.82;0.80;;;18.20;64.70;;;;;;4086593;28;20048;-48
2022/09/25 00:31:35;;;;;;;1.05;0.75;;;18.30;64.70;;;;;;4079497;28;20122;-45
2022/09/25 00:34:00;;;;;;;1.65;0.77;;;18.30;64.80;;;;;;4080260;28;20813;-48
2022/09/25 00:36:23;;;;;;;1.25;0.77;;;18.30;64.80;;;;;;4082695;28;20300;-48
2022/09/25 00:38:47;;;;;;;0.77;0.70;;;18.30;64.80;;;;;;4079064;28;20043;-50
2022/09/25 00:41:10;;;;;;;1.27;0.60;;;18.30;64.70;;;;;;4079185;28;20347;-47
2022/09/25 00:43:49;;;;;;;1.08;0.82;;;18.30;64.70;;;;;;4081283;28;20134;-45
2022/09/25 00:46:33;;;;;;;1.70;1.00;;;18.20;64.70;;;;;;4084867;28;20496;-51
2022/09/25 00:49:15;;;;;;;0.70;0.70;;;18.30;64.70;;;;;;4089345;28;20047;-48
2022/09/25 00:51:42;;;;;;;1.20;0.85;;;18.30;64.70;;;;;;4092674;28;20495;-50
2022/09/25 00:54:07;;;;;;;2.20;0.90;;;18.30;64.40;;;;;;4087735;28;20477;-45
2022/09/25 00:56:34;;;;;;;1.20;0.70;;;18.30;64.40;;;;;;4084225;28;20043;-48
2022/09/25 00:58:57;;;;;;;1.25;0.90;;;18.30;64.30;;;;;;4086010;28;20050;-47
2022/09/25 01:01:21;;;;;;;1.58;1.00;;;18.30;64.30;;;;;;4085829;28;20039;-46
2022/09/25 01:03:45;;;;;;;;;;;18.30;64.20;;;;;;4086051;28;20141;-48
2022/09/25 01:06:11;;;;;;;1.65;0.60;;;18.40;64.20;;;;;;4083925;28;19945;-48
2022/09/25 01:08:34;;;;;;;1.20;0.75;;;18.40;64.00;;;;;;4087342;28;20427;-45
2022/09/25 01:10:57;;;;;;;0.90;0.70;;;18.40;63.90;;;;;;4084988;28;20043;-50
2022/09/25 01:13:20;;;;;;;2.90;1.13;;;18.40;63.80;;;;;;4081846;28;20062;-47
2022/09/25 01:16:09;;;;;;;1.53;0.90;;;18.40;63.60;;;;;;4083781;28;20127;-47
2022/09/25 01:18:51;;;;;;;0.77;0.70;;;18.40;63.40;;;;;;4084148;28;20118;-46
2022/09/25 01:21:16;;;;;;;0.75;0.60;;;18.40;63.10;;;;;;4082661;28;20118;-46
2022/09/25 01:23:48;;;;;;;2.33;0.88;;;18.40;62.80;;;;;;4092096;28;20518;-47
2022/09/25 01:26:30;;;;;;;1.27;0.90;;;18.40;62.60;;;;;;4079796;28;20043;-49
2022/09/25 01:29:14;;;;;;;1.75;0.90;;;18.40;62.40;;;;;;4095376;28;20075;-49
2022/09/25 01:32:14;;;;;;;1.23;0.80;;;18.50;62.40;;;;;;4084885;28;20418;-49
2022/09/25 01:34:49;;;;;;;0.98;0.80;;;18.50;62.30;;;;;;4094882;28;20047;-49
2022/09/25 01:37:31;;;;;;;1.02;0.70;;;18.50;61.90;;;;;;4087376;28;20078;-50
2022/09/25 01:40:34;;;;;;;0.85;0.60;;;18.50;61.80;;;;;;4091172;28;20043;-52
2022/09/25 01:43:17;;;;;;;1.13;0.90;;;18.50;61.30;;;;;;4082751;28;20035;-46
2022/09/25 01:45:50;;;;;;;0.88;0.65;;;18.50;61.20;;;;;;4080041;28;20114;-47
2022/09/25 01:48:17;;;;;;;1.40;0.90;;;18.50;60.90;;;;;;4085650;28;20086;-47
2022/09/25 01:51:04;;;;;;;1.13;0.75;;;18.50;60.70;;;;;;4091431;28;20118;-45
2022/09/25 01:53:33;;;;;;;0.63;0.60;;;18.50;60.70;;;;;;4082475;28;20075;-46
2022/09/25 01:56:02;;;;;;;1.25;0.80;;;18.60;60.40;;;;;;4090122;28;20039;-46
2022/09/25 01:58:50;;;;;;;0.95;0.75;;;18.60;60.30;;;;;;4085680;28;20039;-50
2022/09/25 02:01:22;;;;;;;1.10;1.00;;;18.60;60.10;;;;;;4089218;28;20038;-46
2022/09/25 02:03:51;;;;;;;0.98;0.88;;;18.60;60.10;;;;;;4094780;28;20526;-47
2022/09/25 02:06:18;;;;;;;1.38;0.80;;;18.60;60.10;;;;;;4089760;28;20031;-50
2022/09/25 02:08:46;;;;;;;1.20;0.57;;;18.70;60.10;;;;;;4082112;28;20480;-46
2022/09/25 02:11:09;;;;;;;1.10;0.90;;;18.70;60.20;;;;;;4086199;28;20388;-47
2022/09/25 02:13:53;;;;;;;1.90;0.95;;;18.70;60.10;;;;;;4090073;28;20055;-49
2022/09/25 02:16:25;;;;;;;1.38;0.90;;;18.70;60.00;;;;;;4086026;28;20048;-48
2022/09/25 02:21:53;;;;;;;1.33;0.85;;;18.80;59.50;;;;;;4087883;28;20039;-46
2022/09/25 02:24:53;;;;;;;1.17;0.77;;;18.80;59.20;;;;;;4084828;28;20035;-45
2022/09/25 02:27:19;;;;;;;2.30;0.82;;;18.80;59.00;;;;;;4083231;28;20043;-46
2022/09/25 02:29:42;;;;;;;1.05;0.80;;;18.80;58.60;;;;;;4085792;28;20039;-48
2022/09/25 02:32:14;;;;;;;1.02;0.90;;;18.80;58.70;;;;;;4088236;28;20392;-45
2022/09/25 02:34:37;;;;;;;1.10;0.90;;;18.80;58.60;;;;;;4089370;28;20503;-46
2022/09/25 02:36:59;;;;;;;1.77;0.93;;;18.90;58.40;;;;;;4087455;28;20043;-47
2022/09/25 02:39:27;;;;;;;0.90;0.90;;;18.90;58.40;;;;;;4083106;28;20110;-50
2022/09/25 02:41:51;;;;;;;1.20;0.88;;;18.90;58.60;;;;;;4093376;28;20058;-45
2022/09/25 02:44:56;;;;;;;1.17;1.08;;;19.00;58.80;;;;;;4089824;28;20052;-46
2022/09/25 02:47:27;;;;;;;1.13;0.98;;;19.00;58.70;;;;;;4084590;28;20407;-47
2022/09/25 02:50:12;;;;;;;0.93;0.80;;;19.00;58.40;;;;;;4082341;28;20140;-47
2022/09/25 02:52:49;;;;;;;1.27;0.95;;;19.00;58.20;;;;;;4090717;28;20032;-47
2022/09/25 02:55:24;;;;;;;1.88;0.82;;;19.00;58.30;;;;;;4085558;28;20044;-51
2022/09/25 02:57:51;;;;;;;0.80;0.80;;;19.10;58.40;;;;;;4084945;28;20066;-47
2022/09/25 03:00:15;;;;;;;1.42;1.00;;;19.10;58.30;;;;;;4087563;28;20047;-48
2022/09/25 03:02:38;;;;;;;1.33;1.00;;;19.10;58.20;;;;;;4093850;28;20479;-48
2022/09/25 03:05:02;;;;;;;1.08;0.98;;;19.10;58.10;;;;;;4080757;28;20042;-50
2022/09/25 03:07:25;;;;;;;1.42;0.90;;;19.20;58.00;;;;;;4085950;28;20501;-51
2022/09/25 03:09:51;;;;;;;1.02;0.80;;;19.20;58.20;;;;;;4079671;28;20156;-47
2022/09/25 03:12:14;;;;;;;1.05;0.90;;;19.20;58.50;;;;;;4092404;28;20082;-51
2022/09/25 03:14:37;;;;;;;1.42;1.10;;;19.20;58.50;;;;;;4079392;28;20059;-47
2022/09/25 03:17:03;;;;;;;1.17;1.08;;;19.30;58.10;;;;;;4087674;28;20035;-47
2022/09/25 03:19:28;;;;;;;1.23;0.80;;;19.30;58.00;;;;;;4088862;28;20074;-47
2022/09/25 03:21:53;;;;;;;0.98;0.93;;;19.30;58.00;;;;;;4083407;28;20155;-45
2022/09/25 03:24:16;;;;;;;1.05;0.80;;;19.40;58.00;;;;;;4089183;28;20042;-48
2022/09/25 03:26:39;;;;;;;1.08;0.93;;;19.40;58.10;;;;;;4088791;28;20106;-46
2022/09/25 03:29:02;;;;;;;1.38;0.95;;;19.40;57.80;;;;;;4098374;28;20432;-48
2022/09/25 03:31:24;;;;;;;1.25;0.90;;;19.50;57.30;;;;;;4091503;28;20051;-45
2022/09/25 03:33:47;;;;;;;1.17;1.08;;;19.50;57.30;;;;;;4089523;28;20062;-45
2022/09/25 03:36:22;;;;;;;2.35;1.20;;;19.50;57.00;;;;;;4080122;28;20102;-45
2022/09/25 03:38:47;;;;;;;1.23;0.90;;;19.60;57.00;;;;;;4087800;28;20043;-45
2022/09/25 03:41:11;;;;;;;1.00;0.90;;;19.60;57.10;;;;;;4090732;28;20536;-45
2022/09/25 03:43:43;;;;;;;1.58;1.20;;;19.70;57.10;;;;;;4090971;28;20134;-48
2022/09/25 03:46:08;;;;;;;1.92;0.98;;;19.70;56.60;;;;;;4085920;28;20492;-45
2022/09/25 03:48:31;;;;;;;1.05;0.95;;;19.80;56.00;;;;;;4091366;28;20027;-46
2022/09/25 03:50:55;;;;;;;1.30;0.93;;;19.80;55.60;;;;;;4090984;28;20074;-45
2022/09/25 03:53:17;;;;;;;1.35;1.10;;;19.90;55.40;;;;;;4081967;28;20606;-45
2022/09/25 03:55:40;;;;;;;1.20;1.10;;;19.90;55.10;;;;;;4090949;28;20118;-48
2022/09/25 03:58:03;;;;;;;1.60;1.20;;;20.00;55.20;;;;;;4088277;28;20067;-49
2022/09/25 04:00:26;;;;;;;2.35;1.15;;;20.00;55.20;;;;;;4083689;28;20047;-48
2022/09/25 04:02:49;;;;;;;2.22;1.45;;;20.10;54.70;;;;;;4085522;28;20122;-47
2022/09/25 04:05:11;;;;;;;1.23;1.13;;;20.10;54.60;;;;;;4086070;28;20081;-47
2022/09/25 04:07:34;;;;;;;1.60;1.15;;;20.20;54.40;;;;;;4086485;28;20147;-45
2022/09/25 04:09:56;;;;;;;1.63;1.15;;;20.30;54.10;;;;;;4080479;28;20411;-44
2022/09/25 04:12:20;;;;;;;2.08;1.20;;;20.40;53.50;;;;;;4085536;28;20482;-46
2022/09/25 04:14:44;;;;;;;1.27;1.10;;;20.40;53.20;;;;;;4090942;28;20467;-45
2022/09/25 04:17:07;;;;;;;1.15;1.02;;;20.50;53.00;;;;;;4078049;28;20409;-46
2022/09/25 04:19:30;;;;;;;1.95;1.15;;;20.60;52.60;;;;;;4085462;28;20048;-50
2022/09/25 04:21:52;;;;;;;2.17;1.13;;;20.60;52.40;;;;;;4088138;28;20423;-50
2022/09/25 04:26:55;;;;;;;1.98;1.27;;;20.80;52.70;;;;;;4090850;28;20043;-47
2022/09/25 04:29:20;;;;;;;2.33;1.70;;;20.90;53.00;;;;;;4083750;28;20041;-50
2022/09/25 04:31:42;;;;;;;2.45;1.45;;;20.90;53.10;;;;;;4085705;28;20577;-45
2022/09/25 04:34:05;;;;;;;2.13;1.35;;;21.00;53.30;;;;;;4089199;28;20047;-47
2022/09/25 04:36:27;;;;;;;1.70;1.50;;;21.10;53.50;;;;;;4077644;28;20043;-46
2022/09/25 04:38:50;;;;;;;2.33;1.45;;;21.10;53.70;;;;;;4082918;28;20474;-47
2022/09/25 04:41:15;;;;;;;1.38;1.20;;;21.20;53.70;;;;;;4080966;28;20563;-44
2022/09/25 04:43:40;;;;;;;4.53;1.50;;;21.30;54.30;;;;;;4087646;28;20055;-52
2022/09/25 04:46:05;;;;;;;5.70;1.40;;;21.40;55.00;;;;;;4087108;28;20035;-51
2022/09/25 04:48:28;;;;;;;3.15;1.38;;;21.40;54.90;;;;;;4082510;28;20059;-49
2022/09/25 04:50:51;;;;;;;2.63;1.55;;;21.40;55.00;;;;;;4086430;28;20039;-45
2022/09/25 04:53:15;;;;;;;2.50;1.55;;;21.40;55.00;;;;;;4087271;28;20036;-45
2022/09/25 04:55:38;;;;;;;2.90;1.90;;;21.50;55.10;;;;;;4085508;28;20412;-45
2022/09/25 04:58:01;;;;;;;3.20;2.10;;;21.50;55.20;;;;;;4083770;28;20519;-47
2022/09/25 05:00:26;;;;;;;4.07;2.50;;;21.60;55.30;;;;;;4085468;28;20463;-44
2022/09/25 05:02:49;;;;;;;3.97;2.80;;;21.60;55.40;;;;;;4083122;28;20620;-47
2022/09/25 05:05:13;;;;;;;4.47;3.33;;;21.60;55.40;;;;;;4079117;28;20405;-48
2022/09/25 05:07:35;;;;;;;4.70;3.40;;;21.70;55.50;;;;;;4085367;28;20043;-45
2022/09/25 05:09:58;;;;;;;5.85;3.97;;;21.70;55.60;;;;;;4076483;28;20114;-50
2022/09/25 05:12:20;;;;;;;5.75;4.72;;;21.80;55.50;;;;;;4084463;28;20130;-47
2022/09/25 05:14:43;;;;;;;6.40;5.00;;;21.90;55.60;;;;;;4083686;28;20285;-46
2022/09/25 05:17:07;;;;;;;7.65;5.75;;;22.00;55.70;;;;;;4080893;28;20463;-46
2022/09/25 05:19:29;;;;;;;;;;;22.00;55.60;;;;;;4083058;28;20436;-45
2022/09/25 05:21:53;;;;;;;8.05;6.30;;;22.10;55.70;;;;;;4076931;28;19933;-45
2022/09/25 05:24:15;;;;;;;;;;;22.10;55.50;;;;;;4078150;28;20040;-45
2022/09/25 05:26:39;;;;;;;8.10;5.97;;;22.10;55.50;;;;;;4075459;28;19962;-49
2022/09/25 05:29:01;;;;;;;;;;;22.20;55.40;;;;;;4074337;28;20044;-53
2022/09/25 05:31:24;;;;;;;7.22;5.90;;;22.20;55.50;;;;;;4084847;28;20341;-46
2022/09/25 05:33:47;;;;;;;7.63;6.13;;;22.20;55.40;;;;;;4090158;28;20491;-44
2022/09/25 05:36:11;;;;;;;8.23;6.47;;;22.30;55.50;;;;;;4087156;28;20039;-47
2022/09/25 05:38:35;;;;;;;6.95;5.50;;;22.30;55.60;;;;;;4089493;28;20041;-48
2022/09/25 05:41:04;;;;;;;7.95;5.93;;;22.30;55.60;;;;;;4086274;28;20130;-46
2022/09/25 05:43:27;;;;;;;6.72;5.10;;;22.30;55.50;;;;;;4083431;28;20134;-46
2022/09/25 05:45:56;;;;;;;6.72;5.28;;;22.40;55.60;;;;;;4091229;28;20048;-45
2022/09/25 05:48:18;;;;;;;7.35;5.20;;;22.40;55.50;;;;;;4085685;28;20519;-45
2022/09/25 05:50:41;;;;;;;5.40;4.15;;;22.40;55.60;;;;;;4086662;28;20078;-46
2022/09/25 05:53:05;;;;;;;6.35;4.80;;;22.50;55.40;;;;;;4086555;28;20050;-43
2022/09/25 05:55:29;;;;;;;5.60;4.13;;;22.50;55.40;;;;;;4090104;28;20421;-44
2022/09/25 05:57:52;;;;;;;6.10;4.40;;;22.50;55.40;;;;;;4090694;28;20459;-43
2022/09/25 06:00:15;;;;;;;5.20;3.50;;;22.60;55.40;;;;;;4091904;28;20499;-45
2022/09/25 06:02:37;;;;;;;4.80;3.45;;;22.70;55.30;;;;;;4089738;28;20115;-47
2022/09/25 06:05:00;;;;;;;4.20;3.13;;;22.70;55.20;;;;;;4090698;28;20050;-44
2022/09/25 06:07:22;;;;;;;4.65;2.78;;;22.80;55.20;;;;;;4084432;28;20115;-43
2022/09/25 06:09:45;;;;;;;4.00;3.08;;;22.80;55.00;;;;;;4089774;28;20060;-47
2022/09/25 06:12:08;;;;;;;4.82;2.75;;;22.80;54.90;;;;;;4089451;28;20463;-46
2022/09/25 06:14:30;;;;;;;3.65;2.50;;;22.90;54.90;;;;;;4093022;28;20515;-45
2022/09/25 06:16:53;;;;;;;3.92;2.30;;;22.90;54.90;;;;;;4091158;28;20046;-44
2022/09/25 06:19:16;;;;;;;3.47;2.67;;;22.90;54.90;;;;;;4085272;28;20044;-45
2022/09/25 06:21:39;;;;;;;5.43;2.03;;;22.90;54.80;;;;;;4090942;28;20481;-46
2022/09/25 06:24:01;;;;;;;2.75;1.98;;;22.90;55.00;;;;;;4090366;28;20046;-48
2022/09/25 06:26:24;;;;;;;2.42;1.52;;;23.00;55.00;;;;;;4090042;28;20127;-52
2022/09/25 06:28:47;;;;;;;2.30;1.50;;;23.10;54.90;;;;;;4094279;28;20408;-47
2022/09/25 06:31:10;;;;;;;2.40;1.38;;;23.10;54.80;;;;;;4091497;28;20158;-50
2022/09/25 06:33:32;;;;;;;1.95;1.42;;;23.20;54.80;;;;;;4084282;28;20082;-52
2022/09/25 06:35:55;;;;;;;1.67;1.00;;;23.20;54.60;;;;;;4091940;28;20051;-49
2022/09/25 06:38:18;;;;;;;1.20;0.88;;;23.30;54.70;;;;;;4091459;28;20499;-50
2022/09/25 06:40:41;;;;;;;2.03;0.82;;;23.30;54.60;;;;;;4091031;28;20043;-49
2022/09/25 06:43:05;;;;;;;0.90;0.70;;;23.30;54.50;;;;;;4085435;28;20118;-48
2022/09/25 06:45:28;;;;;;;;;;;23.40;54.60;;;;;;4090609;28;20278;-50
2022/09/25 06:47:50;;;;;;;1.42;0.88;;;23.40;54.70;;;;;;4086981;28;19993;-48
2022/09/25 06:50:13;;;;;;;2.85;0.68;;;23.40;54.70;;;;;;4084750;28;20043;-53
2022/09/25 06:52:42;;;;;;;2.00;0.82;;;23.40;54.70;;;;;;4081641;28;20035;-48
2022/09/25 06:55:06;;;;;;;3.13;0.90;;;23.40;54.70;;;;;;4078932;28;20833;-47
2022/09/25 06:57:29;;;;;;;1.45;0.90;;;23.40;54.70;;;;;;4086703;28;20031;-46
2022/09/25 06:59:51;;;;;;;3.50;0.80;;;23.40;54.70;;;;;;4077068;28;20543;-50
2022/09/25 07:04:55;;;;;;;2.35;0.80;;;23.40;54.60;;;;;;4082558;28;20495;-49
2022/09/25 07:07:23;;;;;;;3.40;0.77;;;23.40;54.70;;;;;;4079567;28;20284;-49
2022/09/25 07:09:47;;;;;;;1.63;0.73;;;23.30;54.70;;;;;;4077249;28;20375;-58
2022/09/25 07:12:10;;;;;;;5.13;1.25;;;23.30;54.70;;;;;;4078164;28;20039;-49
2022/09/25 07:14:32;;;;;;;8.07;1.15;;;23.30;54.70;;;;;;4080164;28;20058;-50
2022/09/25 07:16:55;;;;;;;8.30;1.38;;;23.30;54.90;;;;;;4078288;28;20046;-49
2022/09/25 07:19:17;;;;;;;6.97;1.02;;;23.20;54.80;;;;;;4084987;28;20047;-50
2022/09/25 07:21:42;;;;;;;5.57;1.35;;;23.20;54.80;;;;;;4077490;28;20129;-53
2022/09/25 07:24:05;;;;;;;2.83;0.93;;;23.20;55.00;;;;;;4085629;28;20415;-49
2022/09/25 07:26:32;;;;;;;2.30;0.80;;;23.10;55.10;;;;;;4078727;28;20130;-49
2022/09/25 07:29:02;;;;;;;4.18;0.98;;;23.10;55.20;;;;;;4078803;28;20483;-47
2022/09/25 07:31:28;;;;;;;4.88;1.10;;;23.10;55.40;;;;;;4082464;28;20542;-51
2022/09/25 07:33:51;;;;;;;3.83;1.00;;;23.00;55.60;;;;;;4075559;28;20110;-49
2022/09/25 07:36:15;;;;;;;2.08;0.95;;;23.00;55.60;;;;;;4075753;28;20035;-49
2022/09/25 07:38:39;;;;;;;3.17;0.90;;;23.00;55.70;;;;;;4083488;28;20046;-47
2022/09/25 07:41:02;;;;;;;3.38;0.80;;;22.90;55.80;;;;;;4088029;28;20042;-48
2022/09/25 07:43:25;;;;;;;2.88;0.88;;;22.90;55.80;;;;;;4083487;28;20087;-47
2022/09/25 07:45:52;;;;;;;2.20;0.55;;;22.90;56.00;;;;;;4084153;28;20311;-47
2022/09/25 07:48:15;;;;;;;2.13;1.00;;;22.80;56.00;;;;;;4089853;28;20496;-48
2022/09/25 07:50:37;;;;;;;3.05;1.05;;;22.80;56.10;;;;;;4091254;28;20404;-47
2022/09/25 07:53:00;;;;;;;3.00;0.60;;;22.80;56.20;;;;;;4084940;28;20076;-52
2022/09/25 07:55:22;;;;;;;4.75;0.70;;;22.80;56.40;;;;;;4085597;28;20066;-49
2022/09/25 07:57:45;;;;;;;4.22;0.60;;;22.80;56.50;;;;;;4081814;28;20555;-51
2022/09/25 08:00:09;;;;;;;0.77;0.50;;;22.70;56.50;;;;;;4082839;28;20094;-49
2022/09/25 08:02:33;;;;;;;0.43;0.43;;;22.70;56.70;;;;;;4091780;28;20118;-50
2022/09/25 08:04:56;;;;;;;2.92;0.60;;;22.70;56.80;;;;;;4087894;28;20373;-48
2022/09/25 08:07:19;;;;;;;0.68;0.40;;;22.60;56.80;;;;;;4085611;28;20453;-51
2022/09/25 08:09:41;;;;;;;1.70;0.50;;;22.60;56.90;;;;;;4081470;28;20043;-53
2022/09/25 08:12:04;;;;;;;1.70;0.73;;;22.60;57.00;;;;;;4082831;28;20044;-54
2022/09/25 08:14:27;;;;;;;0.65;0.40;;;22.50;57.00;;;;;;4088981;28;20499;-48
2022/09/25 08:16:54;;;;;;;0.40;0.40;;;22.60;57.00;;;;;;4080604;28;20043;-47
2022/09/25 08:19:17;;;;;;;1.30;0.30;;;22.50;57.00;;;;;;4090063;28;20035;-50
2022/09/25 08:21:39;;;;;;;1.65;0.55;;;22.50;57.10;;;;;;4080375;28;20045;-48
2022/09/25 08:24:02;;;;;;;2.95;0.60;;;22.50;57.20;;;;;;4081431;28;20130;-50
2022/09/25 08:26:27;;;;;;;0.77;0.40;;;22.50;57.30;;;;;;4084549;28;20567;-49
2022/09/25 08:28:50;;;;;;;0.68;0.30;;;22.40;57.20;;;;;;4080418;28;20047;-51
2022/09/25 08:31:13;;;;;;;0.90;0.47;;;22.40;57.30;;;;;;4091455;28;20082;-50
2022/09/25 08:33:36;;;;;;;0.40;0.40;;;22.40;57.40;;;;;;4086271;28;20082;-47
2022/09/25 08:36:01;;;;;;;0.88;0.30;;;22.40;57.40;;;;;;4081943;28;20107;-50
2022/09/25 08:38:25;;;;;;;0.35;0.30;;;22.40;57.50;;;;;;4086084;28;20050;-47
2022/09/25 08:41:14;;;;;;;1.65;0.50;;;22.30;57.50;;;;;;4089935;28;20436;-48
2022/09/25 08:43:48;;;;;;;0.20;0.20;;;22.30;57.50;;;;;;4090935;28;20057;-53
2022/09/25 08:49:09;;;;;;;0.43;0.30;;;22.30;57.60;;;;;;4088898;28;20409;-48
2022/09/25 08:51:42;;;;;;;0.30;0.30;;;22.30;57.70;;;;;;4081005;28;20079;-52
2022/09/25 08:54:05;;;;;;;0.88;0.40;;;22.30;57.70;;;;;;4081761;28;20103;-52
2022/09/25 08:56:31;;;;;;;1.35;0.50;;;22.30;57.80;;;;;;4086908;28;20171;-48
2022/09/25 08:59:22;;;;;;;0.90;0.40;;;22.20;57.80;;;;;;4083910;28;20039;-49
2022/09/25 09:01:53;;;;;;;0.50;0.40;;;22.20;57.80;;;;;;4086608;28;20054;-46
2022/09/25 09:04:33;;;;;;;0.55;0.40;;;22.20;57.90;;;;;;4083687;28;20122;-50
2022/09/25 09:07:18;;;;;;;1.17;0.30;;;22.20;57.90;;;;;;4078675;28;20074;-48
2022/09/25 09:10:13;;;;;;;0.75;0.47;;;22.10;58.00;;;;;;4080019;28;20031;-50
2022/09/25 09:12:45;;;;;;;0.30;0.30;;;22.10;58.00;;;;;;4086137;28;20035;-48
2022/09/25 09:15:22;;;;;;;1.08;0.40;;;22.10;58.00;;;;;;4081640;28;20135;-50
2022/09/25 09:17:44;;;;;;;1.85;0.63;;;22.10;58.00;;;;;;4086804;28;20403;-48
2022/09/25 09:20:21;;;;;;;0.57;0.40;;;22.10;58.10;;;;;;4092465;28;20570;-49
2022/09/25 09:22:51;;;;;;;0.40;0.40;;;22.10;58.10;;;;;;4082212;28;22031;-51
2022/09/25 09:25:27;;;;;;;1.88;0.70;;;22.10;58.20;;;;;;4085030;28;20133;-48
2022/09/25 09:28:23;;;;;;;0.50;0.50;;;22.00;58.20;;;;;;4085354;28;20083;-52
2022/09/25 09:31:33;;;;;;;0.90;0.55;;;22.00;58.30;;;;;;4089055;28;20040;-50
2022/09/25 09:34:30;;;;;;;0.52;0.50;;;22.00;58.30;;;;;;4080538;28;20048;-52
2022/09/25 09:37:14;;;;;;;1.08;0.60;;;22.00;58.30;;;;;;4089109;28;20083;-51
2022/09/25 09:40:07;;;;;;;0.93;0.50;;;22.00;58.40;;;;;;4086384;28;20084;-52
2022/09/25 09:42:46;;;;;;;0.30;0.30;;;22.00;58.40;;;;;;4088833;28;20097;-51
2022/09/25 09:45:28;;;;;;;0.60;0.40;;;21.90;58.50;;;;;;4082729;28;20098;-54
2022/09/25 09:47:59;;;;;;;1.40;0.57;;;21.90;58.40;;;;;;4083875;28;20049;-54
2022/09/25 09:50:52;;;;;;;0.40;0.40;;;21.90;58.50;;;;;;4089508;28;20130;-54
2022/09/25 09:53:47;;;;;;;0.43;0.43;;;21.90;58.50;;;;;;4084015;28;20574;-51
2022/09/25 09:56:13;;;;;;;;;;;21.80;58.50;;;;;;4082708;28;20043;-54
2022/09/25 09:58:59;;;;;;;0.88;0.60;;;21.80;58.60;;;;;;4083376;28;19914;-54
2022/09/25 10:01:25;;;;;;;0.52;0.40;;;21.80;58.70;;;;;;4083975;28;20908;-54
2022/09/25 10:03:59;;;;;;;0.50;0.50;;;21.80;58.60;;;;;;4089208;28;20039;-53
2022/09/25 10:06:24;;;;;;;2.65;0.80;;;21.80;58.60;;;;;;4088866;28;20056;-51
2022/09/25 10:08:47;;;;;;;0.70;0.60;;;21.80;58.60;;;;;;4080620;28;20048;-53
2022/09/25 10:11:18;;;;;;;0.60;0.50;;;21.80;58.70;;;;;;4084449;28;20082;-51
2022/09/25 10:13:42;;;;;;;0.60;0.50;;;21.80;58.70;;;;;;4082829;28;20119;-53
2022/09/25 10:16:12;;;;;;;0.55;0.40;;;21.70;58.70;;;;;;4085074;28;20078;-54
2022/09/25 10:18:55;;;;;;;1.52;0.68;;;21.70;58.70;;;;;;4083799;28;20038;-53
2022/09/25 10:21:26;;;;;;;0.73;0.60;;;21.70;58.70;;;;;;4082157;28;20117;-52
2022/09/25 10:23:54;;;;;;;0.47;0.40;;;21.70;58.80;;;;;;4087623;28;20050;-52
2022/09/25 10:26:36;;;;;;;0.60;0.50;;;21.70;58.80;;;;;;4084877;28;20047;-48
2022/09/25 10:29:01;;;;;;;0.40;0.40;;;21.70;58.80;;;;;;4090988;28;20439;-54
2022/09/25 10:31:32;;;;;;;0.80;0.40;;;21.70;58.80;;;;;;4089031;28;20110;-52
2022/09/25 10:34:23;;;;;;;0.93;0.60;;;21.60;58.80;;;;;;4092352;28;20055;-49
2022/09/25 10:36:51;;;;;;;0.82;0.70;;;21.60;58.80;;;;;;4087352;28;20043;-47
2022/09/25 10:39:40;;;;;;;1.17;0.60;;;21.70;59.00;;;;;;4087304;28;20389;-53
2022/09/25 10:42:07;;;;;;;2.08;0.63;;;21.60;58.90;;;;;;4087987;28;20129;-46
2022/09/25 10:44:35;;;;;;;1.00;0.70;;;21.60;58.90;;;;;;4090392;28;20110;-51
2022/09/25 10:52:28;;;;;;;1.25;0.65;;;21.50;59.00;;;;;;4085922;28;20051;-49
2022/09/25 10:54:57;;;;;;;0.43;0.43;;;21.60;59.10;;;;;;4086503;28;20210;-49
2022/09/25 10:57:36;;;;;;;0.90;0.70;;;21.60;59.00;;;;;;4090910;28;20405;-51
2022/09/25 11:00:00;;;;;;;0.88;0.63;;;21.50;59.00;;;;;;4091233;28;20039;-47
2022/09/25 11:02:45;;;;;;;0.80;0.60;;;21.50;59.10;;;;;;4089981;28;20058;-49
2022/09/25 11:05:17;;;;;;;0.70;0.70;;;21.50;59.10;;;;;;4087631;28;20427;-48
2022/09/25 11:07:42;;;;;;;0.90;0.63;;;21.50;59.10;;;;;;4090062;28;20113;-53
2022/09/25 11:10:18;;;;;;;0.73;0.60;;;21.50;59.20;;;;;;4087491;28;20062;-52
2022/09/25 11:12:44;;;;;;;0.85;0.70;;;21.50;59.20;;;;;;4084108;28;20047;-53
2022/09/25 11:15:08;;;;;;;0.88;0.60;;;21.40;59.10;;;;;;4087314;28;20364;-51
2022/09/25 11:17:38;;;;;;;0.75;0.57;;;21.40;59.20;;;;;;4077721;28;20043;-47
2022/09/25 11:20:28;;;;;;;0.80;0.60;;;21.50;59.20;;;;;;4083278;28;20066;-52
2022/09/25 11:22:57;;;;;;;1.58;0.60;;;21.40;59.20;;;;;;4084494;29;20066;-52
2022/09/25 11:25:49;;;;;;;0.75;0.50;;;21.40;59.30;;;;;;4085441;28;20039;-49
2022/09/25 11:28:36;;;;;;;1.15;0.60;;;21.40;59.20;;;;;;4067059;28;20126;-51
2022/09/25 11:31:03;;;;;;;0.70;0.57;;;21.40;59.20;;;;;;4080712;28;20039;-50
2022/09/25 11:34:03;;;;;;;0.80;0.60;;;21.40;59.30;;;;;;4080256;28;20523;-48
2022/09/25 11:36:34;;;;;;;1.08;0.70;;;21.40;59.40;;;;;;4087583;28;20420;-49
2022/09/25 11:42:13;;;;;;;0.70;0.70;;;21.30;59.30;;;;;;4087644;28;20125;-50
2022/09/25 11:44:53;;;;;;;0.60;0.60;;;21.30;59.30;;;;;;4090763;28;20038;-51
2022/09/25 11:47:37;;;;;;;1.45;0.68;;;21.30;59.30;;;;;;4093489;28;20083;-48
2022/09/25 11:50:01;;;;;;;0.70;0.70;;;21.30;59.40;;;;;;4086474;28;20053;-52
2022/09/25 11:52:46;;;;;;;0.85;0.70;;;21.30;59.30;;;;;;4089457;28;20052;-48
2022/09/25 11:55:45;;;;;;;0.88;0.60;;;21.30;59.40;;;;;;4086407;28;20488;-52
2022/09/25 11:58:32;;;;;;;1.05;0.70;;;21.30;59.40;;;;;;4078966;28;20113;-51
2022/09/25 12:01:20;;;;;;;0.73;0.70;;;21.30;59.40;;;;;;4084443;28;20036;-50
2022/09/25 12:04:12;;;;;;;1.00;0.75;;;21.30;59.40;;;;;;4082172;28;20043;-48
2022/09/25 12:06:56;;;;;;;0.80;0.70;;;21.20;59.40;;;;;;4080211;28;20042;-52
2022/09/25 12:09:46;;;;;;;0.85;0.60;;;21.20;59.50;;;;;;4083095;28;20036;-49
2022/09/25 12:12:33;;;;;;;0.65;0.60;;;21.20;59.60;;;;;;4079763;28;20028;-53
2022/09/25 12:15:04;;;;;;;1.02;0.70;;;21.20;59.50;;;;;;4076803;28;20500;-52
2022/09/25 12:17:38;;;;;;;0.80;0.80;;;21.20;59.60;;;;;;4084292;28;20046;-50
2022/09/25 12:20:07;;;;;;;1.35;0.88;;;21.10;59.60;;;;;;4089764;28;20047;-46
2022/09/25 12:23:08;;;;;;;0.80;0.77;;;21.10;59.50;;;;;;4085006;28;20094;-51
2022/09/25 12:25:46;;;;;;;1.00;0.80;;;21.10;59.60;;;;;;4086675;28;20523;-47
2022/09/25 12:28:20;;;;;;;1.17;0.70;;;21.10;59.80;;;;;;4078401;28;20087;-49
2022/09/25 12:31:04;;;;;;;12.20;1.25;;;21.10;60.10;;;;;;4080722;28;20076;-51
2022/09/25 12:33:31;;;;;;;;;;;21.10;60.40;;;;;;4080050;28;20059;-48
2022/09/25 12:36:18;;;;;;;3.90;1.13;;;21.10;60.60;;;;;;4082408;28;19946;-50
2022/09/25 12:38:54;;;;;;;2.03;1.10;;;21.10;60.60;;;;;;4080215;28;20036;-50
2022/09/25 12:41:39;;;;;;;3.20;1.17;;;21.10;60.70;;;;;;4082051;28;20650;-54
2022/09/25 12:44:14;;;;;;;3.42;1.50;;;21.10;60.70;;;;;;4080515;28;20047;-46
2022/09/25 12:47:06;;;;;;;2.38;1.15;;;21.10;60.80;;;;;;4085769;28;20035;-49
2022/09/25 12:49:38;;;;;;;2.92;1.40;;;21.10;60.80;;;;;;4085306;28;20027;-48
2022/09/25 12:52:27;;;;;;;1.83;1.40;;;21.10;60.80;;;;;;4099618;28;20039;-49
2022/09/25 12:55:03;;;;;;;12.23;2.33;;;21.10;61.10;;;;;;4085635;28;20054;-48
2022/09/25 12:58:01;;;;;;;4.40;1.83;;;21.20;61.50;;;;;;4086848;28;20048;-54
2022/09/25 13:00:27;;;;;;;6.82;1.92;;;21.20;61.40;;;;;;4058734;29;20076;-50
2022/09/25 13:03:25;;;;;;;2.40;1.48;;;21.10;61.10;;;;;;4080653;28;20395;-47
2022/09/25 13:06:13;;;;;;;4.82;1.60;;;21.10;61.20;;;;;;4080278;28;20047;-47
2022/09/25 13:08:54;;;;;;;3.30;1.42;;;21.10;61.20;;;;;;4081992;28;20102;-46
2022/09/25 13:11:45;;;;;;;2.72;1.40;;;21.10;61.30;;;;;;4081946;28;20107;-47
2022/09/25 13:14:25;;;;;;;2.90;1.52;;;21.10;61.30;;;;;;4086166;28;20149;-51
2022/09/25 13:16:48;;;;;;;2.97;1.50;;;21.10;61.40;;;;;;4085296;28;20119;-46
2022/09/25 13:19:28;;;;;;;8.52;1.70;;;21.10;61.70;;;;;;4084137;28;20105;-51
2022/09/25 13:21:58;;;;;;;5.28;1.50;;;21.10;61.70;;;;;;4081838;28;20086;-48
2022/09/25 13:24:20;;;;;;;3.58;1.42;;;21.10;61.70;;;;;;4085452;28;20527;-52